Time;durP1;ratioP1;P1;durP2;ratioP2;P2;SDS_P1;SDS_P2;PMS_P1;PMS_P2;Temp;Humidity;BMP_temperature;BMP_pressure;BME280_temperature;BME280_humidity;BME280_pressure;Samples;Min_cycle;Max_cycle;Signal;HPM_P1;HPM_P2
2021/06/22 00:00:29;;;;;;;4.82;2.17;;;13.20;86.40;;;;;;2065000;28;20459;-82
2021/06/22 00:01:30;;;;;;;5.38;2.10;;;13.30;86.40;;;;;;2070087;28;20018;-82
2021/06/22 00:02:30;;;;;;;4.60;2.30;;;13.20;86.40;;;;;;2085973;28;20508;-82
2021/06/22 00:03:31;;;;;;;4.60;2.17;;;13.20;86.40;;;;;;2072823;28;20116;-82
2021/06/22 00:04:32;;;;;;;4.18;2.10;;;13.20;86.90;;;;;;2081073;28;20068;-82
2021/06/22 00:05:33;;;;;;;4.38;2.10;;;13.20;86.40;;;;;;2093966;28;20024;-82
2021/06/22 00:06:33;;;;;;;5.82;2.30;;;13.20;86.40;;;;;;2083890;28;20041;-82
2021/06/22 00:07:34;;;;;;;4.45;2.28;;;13.20;86.40;;;;;;2081264;28;20025;-82
2021/06/22 00:08:34;;;;;;;5.55;2.10;;;13.20;86.40;;;;;;2074928;28;20099;-82
2021/06/22 00:09:35;;;;;;;5.30;2.30;;;13.20;86.40;;;;;;2081036;28;20450;-82
2021/06/22 00:10:36;;;;;;;4.30;2.30;;;13.20;86.40;;;;;;2078838;28;20197;-82
2021/06/22 00:11:36;;;;;;;4.45;2.00;;;13.20;86.50;;;;;;2073407;28;20026;-82
2021/06/22 00:12:37;;;;;;;4.50;2.08;;;13.20;86.50;;;;;;2084542;28;20033;-82
2021/06/22 00:13:38;;;;;;;4.40;2.15;;;13.20;86.60;;;;;;2077532;28;20021;-82
2021/06/22 00:14:38;;;;;;;7.32;2.78;;;13.20;87.30;;;;;;2072634;28;20048;-82
2021/06/22 00:15:39;;;;;;;4.55;2.03;;;13.20;86.70;;;;;;2072615;28;20172;-82
2021/06/22 00:16:40;;;;;;;3.30;2.10;;;13.20;86.70;;;;;;2081165;28;20504;-82
2021/06/22 00:17:41;;;;;;;4.35;2.17;;;13.20;86.80;;;;;;2087614;28;20025;-82
2021/06/22 00:18:42;;;;;;;5.30;2.00;;;13.20;86.70;;;;;;2088890;28;20027;-81
2021/06/22 00:19:42;;;;;;;3.78;1.90;;;13.20;86.70;;;;;;2081424;28;20119;-82
2021/06/22 00:20:43;;;;;;;4.20;2.20;;;13.20;86.70;;;;;;2076837;28;20416;-81
2021/06/22 00:21:44;;;;;;;5.18;2.50;;;13.20;86.70;;;;;;2098643;28;20029;-83
2021/06/22 00:22:45;;;;;;;3.60;2.05;;;13.20;86.70;;;;;;2106809;28;20055;-82
2021/06/22 00:23:46;;;;;;;4.10;2.20;;;13.10;86.60;;;;;;2098123;28;20036;-81
2021/06/22 00:24:47;;;;;;;5.70;2.85;;;13.10;86.70;;;;;;2088921;28;20033;-82
2021/06/22 00:25:47;;;;;;;5.07;2.33;;;13.10;86.80;;;;;;2072280;28;20038;-82
2021/06/22 00:26:48;;;;;;;3.53;2.10;;;13.10;86.90;;;;;;2079513;28;20062;-82
2021/06/22 00:27:50;;;;;;;4.88;2.10;;;13.10;86.90;;;;;;2091818;28;20382;-82
2021/06/22 00:28:50;;;;;;;5.07;2.30;;;13.10;86.90;;;;;;2093983;28;20021;-81
2021/06/22 00:29:51;;;;;;;4.63;2.17;;;13.10;87.00;;;;;;2092541;28;20052;-82
2021/06/22 00:30:52;;;;;;;5.78;2.42;;;13.10;87.00;;;;;;2091555;28;20445;-82
2021/06/22 00:31:52;;;;;;;3.60;2.00;;;13.00;87.00;;;;;;2080468;28;20032;-81
2021/06/22 00:32:53;;;;;;;4.53;2.40;;;13.10;87.10;;;;;;2088771;28;20033;-82
2021/06/22 00:33:54;;;;;;;4.63;2.33;;;13.00;87.10;;;;;;2088535;28;20068;-83
2021/06/22 00:34:54;;;;;;;5.43;2.47;;;13.00;87.10;;;;;;2087733;28;20633;-83
2021/06/22 00:35:55;;;;;;;4.03;2.20;;;13.00;87.10;;;;;;2097584;28;20029;-82
2021/06/22 00:36:55;;;;;;;3.15;2.13;;;13.00;87.20;;;;;;2094241;28;20482;-82
2021/06/22 00:37:56;;;;;;;4.65;2.60;;;13.00;87.20;;;;;;2088202;28;20110;-82
2021/06/22 00:38:57;;;;;;;5.03;2.03;;;13.00;87.20;;;;;;2089471;28;20435;-82
2021/06/22 00:39:57;;;;;;;4.07;2.17;;;13.00;87.20;;;;;;2082765;28;20041;-82
2021/06/22 00:40:58;;;;;;;4.95;2.40;;;13.00;87.80;;;;;;2072024;28;20022;-82
2021/06/22 00:41:59;;;;;;;5.05;2.17;;;13.00;87.30;;;;;;2073174;28;20046;-81
2021/06/22 00:43:00;;;;;;;4.85;2.22;;;13.00;87.30;;;;;;2081029;28;20025;-81
2021/06/22 00:44:05;;;;;;;4.38;2.20;;;13.00;87.40;;;;;;2089790;28;20067;-82
2021/06/22 00:45:06;;;;;;;4.70;2.38;;;13.00;87.30;;;;;;2087976;28;20032;-82
2021/06/22 00:46:07;;;;;;;6.25;2.55;;;13.00;87.30;;;;;;2089232;28;20194;-82
2021/06/22 00:47:08;;;;;;;5.55;2.28;;;13.00;87.30;;;;;;2080673;28;20529;-82
2021/06/22 00:48:09;;;;;;;6.10;2.42;;;13.00;87.30;;;;;;2087945;28;20092;-82
2021/06/22 00:49:09;;;;;;;3.95;2.42;;;13.00;87.40;;;;;;2089454;28;20116;-82
2021/06/22 00:50:11;;;;;;;4.47;2.63;;;12.90;87.40;;;;;;2081016;28;20438;-82
2021/06/22 00:51:11;;;;;;;4.55;2.47;;;12.90;87.50;;;;;;2072911;28;20038;-81
2021/06/22 00:52:13;;;;;;;3.97;2.17;;;13.00;87.60;;;;;;2077297;28;20030;-81
2021/06/22 00:53:13;;;;;;;5.07;2.50;;;12.90;87.50;;;;;;2072618;28;20452;-82
2021/06/22 00:54:14;;;;;;;6.25;2.60;;;12.90;88.10;;;;;;2089570;28;20088;-82
2021/06/22 00:55:28;;;;;;;4.55;2.30;;;12.90;87.60;;;;;;2105689;28;20042;-83
2021/06/22 00:56:30;;;;;;;3.67;2.13;;;12.90;88.20;;;;;;2088502;28;20029;-81
2021/06/22 00:57:31;;;;;;;8.07;2.80;;;12.80;87.60;;;;;;2074488;28;20117;-81
2021/06/22 00:58:32;;;;;;;3.53;2.40;;;12.80;87.60;;;;;;2079498;28;20029;-81
2021/06/22 00:59:33;;;;;;;6.03;2.65;;;12.90;87.80;;;;;;2083189;28;20192;-82
2021/06/22 01:00:36;;;;;;;4.63;2.50;;;12.90;87.80;;;;;;2072636;28;20520;-82
2021/06/22 01:01:37;;;;;;;5.20;2.50;;;12.80;87.70;;;;;;2079213;28;20454;-82
2021/06/22 01:02:38;;;;;;;6.20;2.38;;;12.80;87.70;;;;;;2083760;28;20032;-82
2021/06/22 01:03:38;;;;;;;4.65;2.47;;;12.80;87.70;;;;;;2094669;28;20032;-81
2021/06/22 01:04:40;;;;;;;5.72;2.60;;;12.80;87.70;;;;;;2088969;28;20116;-81
2021/06/22 01:05:41;;;;;;;3.90;2.47;;;12.80;87.70;;;;;;2080946;28;20535;-81
2021/06/22 01:06:42;;;;;;;5.25;2.67;;;12.80;87.80;;;;;;2080730;28;20559;-82
2021/06/22 01:07:42;;;;;;;4.65;2.40;;;12.80;87.80;;;;;;2071423;28;20499;-81
2021/06/22 01:08:43;;;;;;;5.55;2.55;;;12.80;87.80;;;;;;2080242;28;20081;-82
2021/06/22 01:09:45;;;;;;;4.07;2.60;;;12.80;87.80;;;;;;2072488;28;20464;-82
2021/06/22 01:10:45;;;;;;;5.45;2.60;;;12.80;87.80;;;;;;2075725;28;20497;-82
2021/06/22 01:11:46;;;;;;;5.20;2.78;;;12.80;87.80;;;;;;2089007;28;20059;-82
2021/06/22 01:12:48;;;;;;;3.88;2.33;;;12.80;87.70;;;;;;2089003;28;20037;-82
2021/06/22 01:13:49;;;;;;;7.18;2.90;;;12.80;87.70;;;;;;2087527;28;20017;-82
2021/06/22 01:14:49;;;;;;;6.70;2.67;;;12.80;87.70;;;;;;2088962;28;20551;-82
2021/06/22 01:15:50;;;;;;;4.40;2.58;;;12.90;87.80;;;;;;2088699;28;20554;-82
2021/06/22 01:16:51;;;;;;;5.82;2.70;;;12.90;87.80;;;;;;2085600;28;20029;-82
2021/06/22 01:18:00;;;;;;;5.32;2.60;;;12.80;87.70;;;;;;2079366;28;20480;-82
2021/06/22 01:19:02;;;;;;;4.78;2.40;;;12.80;87.70;;;;;;2081611;28;20112;-83
2021/06/22 01:20:04;;;;;;;3.67;2.22;;;12.80;87.70;;;;;;2089082;28;20020;-82
2021/06/22 01:21:05;;;;;;;5.90;2.38;;;12.80;87.70;;;;;;2088719;28;20025;-82
2021/06/22 01:22:06;;;;;;;4.63;2.42;;;12.80;88.30;;;;;;2088912;28;20091;-83
2021/06/22 01:23:07;;;;;;;5.60;2.60;;;12.80;87.70;;;;;;2089029;28;20443;-82
2021/06/22 01:24:13;;;;;;;5.50;2.65;;;12.80;87.80;;;;;;2080440;28;20549;-82
2021/06/22 01:25:15;;;;;;;4.78;2.35;;;12.80;87.80;;;;;;2081495;28;20029;-83
2021/06/22 01:26:16;;;;;;;4.82;2.40;;;12.80;87.80;;;;;;2080835;28;20120;-82
2021/06/22 01:27:20;;;;;;;4.30;2.35;;;12.80;87.80;;;;;;2079569;28;20440;-82
2021/06/22 01:28:21;;;;;;;5.63;2.65;;;12.80;87.80;;;;;;2082474;28;20036;-82
2021/06/22 01:29:22;;;;;;;4.43;2.47;;;12.80;87.80;;;;;;2080162;28;20041;-82
2021/06/22 01:30:24;;;;;;;5.45;2.80;;;12.70;87.80;;;;;;2071953;28;20113;-82
2021/06/22 01:31:25;;;;;;;6.07;2.55;;;12.70;87.90;;;;;;2088040;28;20025;-81
2021/06/22 01:32:25;;;;;;;5.35;2.53;;;12.80;88.00;;;;;;2090292;28;20025;-82
2021/06/22 01:33:26;;;;;;;5.30;2.42;;;12.80;88.00;;;;;;2088888;28;20041;-82
2021/06/22 01:34:30;;;;;;;5.25;2.80;;;12.80;88.00;;;;;;2072658;28;20193;-82
2021/06/22 01:35:31;;;;;;;4.80;2.63;;;12.80;88.00;;;;;;2081025;28;20128;-82
2021/06/22 01:36:35;;;;;;;5.32;2.53;;;12.80;88.00;;;;;;2083127;28;20032;-82
2021/06/22 01:37:36;;;;;;;5.05;2.67;;;12.70;88.00;;;;;;2088302;28;20025;-82
2021/06/22 01:38:37;;;;;;;5.60;2.65;;;12.70;88.00;;;;;;2078741;28;20033;-81
2021/06/22 01:39:37;;;;;;;3.40;2.55;;;12.70;88.00;;;;;;2055977;28;20034;-82
2021/06/22 01:40:56;;;;;;;6.00;2.83;;;12.70;88.60;;;;;;2072530;28;20129;-82
2021/06/22 01:41:56;;;;;;;4.38;2.13;;;12.70;88.60;;;;;;2094696;28;20033;-82
2021/06/22 01:43:01;;;;;;;3.47;2.30;;;12.70;88.10;;;;;;2080818;28;20480;-82
2021/06/22 01:44:01;;;;;;;3.60;2.22;;;12.70;88.10;;;;;;2073318;28;20041;-82
2021/06/22 01:45:02;;;;;;;5.75;2.40;;;12.70;88.10;;;;;;2088837;28;20480;-82
2021/06/22 01:46:04;;;;;;;5.78;2.70;;;12.70;88.00;;;;;;2072971;28;20400;-82
2021/06/22 01:47:05;;;;;;;4.50;2.40;;;12.70;88.10;;;;;;2063080;28;20492;-82
2021/06/22 01:48:06;;;;;;;5.53;2.60;;;12.70;88.10;;;;;;2088808;28;20076;-82
2021/06/22 01:49:07;;;;;;;4.72;2.53;;;12.70;88.10;;;;;;2093230;28;20105;-82
2021/06/22 01:50:08;;;;;;;4.50;2.45;;;12.70;88.10;;;;;;2088521;28;20037;-82
2021/06/22 01:51:09;;;;;;;3.95;2.60;;;12.70;88.70;;;;;;2088146;28;20033;-82
2021/06/22 01:52:14;;;;;;;5.68;2.95;;;12.70;88.00;;;;;;2089135;28;20025;-82
2021/06/22 01:53:15;;;;;;;6.55;2.70;;;12.70;88.00;;;;;;2088327;28;20547;-82
2021/06/22 01:54:16;;;;;;;5.00;2.58;;;12.70;88.60;;;;;;2088965;28;20072;-82
2021/06/22 01:56:37;;;;;;;6.00;2.80;;;12.70;88.10;;;;;;2082682;28;20531;-81
2021/06/22 01:57:37;;;;;;;5.15;2.90;;;12.70;88.10;;;;;;2088847;28;20039;-82
2021/06/22 01:58:38;;;;;;;6.25;2.85;;;12.70;88.10;;;;;;2080346;28;20057;-82
2021/06/22 01:59:40;;;;;;;6.82;3.00;;;12.70;88.80;;;;;;2072217;28;20030;-82
2021/06/22 02:00:46;;;;;;;5.72;2.90;;;12.70;88.20;;;;;;2080634;28;20018;-82
2021/06/22 02:01:47;;;;;;;4.22;2.60;;;12.60;88.20;;;;;;2080417;28;20029;-82
2021/06/22 02:02:48;;;;;;;4.05;2.67;;;12.70;88.30;;;;;;2071626;28;20029;-82
2021/06/22 02:03:49;;;;;;;5.22;2.85;;;12.70;88.30;;;;;;2063102;28;20125;-81
2021/06/22 02:04:52;;;;;;;3.88;2.40;;;12.60;88.20;;;;;;2079507;28;20021;-81
2021/06/22 02:05:53;;;;;;;5.55;2.58;;;12.60;88.30;;;;;;2088355;28;20045;-82
2021/06/22 02:06:53;;;;;;;4.00;2.55;;;12.60;88.30;;;;;;2088538;28;20049;-82
2021/06/22 02:07:54;;;;;;;4.88;2.58;;;12.60;88.30;;;;;;2087235;28;20029;-82
2021/06/22 02:08:54;;;;;;;5.65;2.80;;;12.60;88.30;;;;;;2072242;28;20037;-83
2021/06/22 02:09:55;;;;;;;5.53;2.70;;;12.60;88.40;;;;;;2072400;28;20033;-81
2021/06/22 02:10:56;;;;;;;5.63;2.60;;;12.60;88.40;;;;;;2080257;28;20040;-82
2021/06/22 02:11:56;;;;;;;6.80;2.97;;;12.60;88.50;;;;;;2079377;28;20404;-82
2021/06/22 02:12:57;;;;;;;4.30;2.28;;;12.60;88.50;;;;;;2088716;28;20546;-82
2021/06/22 02:13:58;;;;;;;6.05;2.20;;;12.60;88.50;;;;;;2087798;28;20090;-81
2021/06/22 02:14:58;;;;;;;4.28;2.50;;;12.60;88.50;;;;;;2088379;28;20036;-82
2021/06/22 02:15:59;;;;;;;4.65;2.70;;;12.60;88.50;;;;;;2072417;28;20025;-82
2021/06/22 02:17:00;;;;;;;3.92;2.38;;;12.60;88.50;;;;;;2080590;28;20045;-82
2021/06/22 02:18:01;;;;;;;4.60;2.72;;;12.70;88.50;;;;;;2088676;28;20550;-82
2021/06/22 02:19:02;;;;;;;5.00;2.60;;;12.70;88.50;;;;;;2085716;28;20050;-82
2021/06/22 02:20:07;;;;;;;5.05;2.70;;;12.70;88.40;;;;;;2080475;28;20128;-82
2021/06/22 02:21:09;;;;;;;4.07;2.60;;;12.70;88.40;;;;;;2081203;28;20083;-82
2021/06/22 02:22:09;;;;;;;4.60;2.50;;;12.70;88.40;;;;;;2087581;28;20057;-82
2021/06/22 02:23:11;;;;;;;4.00;2.53;;;12.70;88.50;;;;;;2088352;28;20029;-82
2021/06/22 02:24:11;;;;;;;4.05;2.50;;;12.70;88.40;;;;;;2088656;28;20032;-82
2021/06/22 02:25:12;;;;;;;4.18;2.50;;;12.70;88.40;;;;;;2088799;28;20458;-82
2021/06/22 02:26:13;;;;;;;4.43;2.95;;;12.70;88.40;;;;;;2071911;28;20192;-82
2021/06/22 02:27:28;;;;;;;5.75;2.85;;;12.70;88.40;;;;;;2076073;28;20076;-82
2021/06/22 02:28:29;;;;;;;6.45;2.70;;;12.70;88.40;;;;;;2091232;28;20114;-82
2021/06/22 02:29:30;;;;;;;5.03;2.88;;;12.70;88.40;;;;;;2089385;28;20047;-82
2021/06/22 02:30:31;;;;;;;3.78;2.60;;;12.70;88.40;;;;;;2080580;28;20021;-82
2021/06/22 02:31:32;;;;;;;5.07;2.88;;;12.70;89.00;;;;;;2074119;28;20495;-82
2021/06/22 02:32:33;;;;;;;4.07;2.63;;;12.70;88.40;;;;;;2088661;28;20128;-82
2021/06/22 02:33:34;;;;;;;4.30;2.58;;;12.60;88.40;;;;;;2088139;28;20115;-82
2021/06/22 02:34:34;;;;;;;5.10;2.90;;;12.60;88.40;;;;;;2071789;28;20468;-82
2021/06/22 02:35:38;;;;;;;5.47;2.85;;;12.60;88.50;;;;;;2071973;28;20108;-82
2021/06/22 02:36:38;;;;;;;4.47;2.63;;;12.60;88.50;;;;;;2081789;28;20021;-82
2021/06/22 02:37:41;;;;;;;5.10;2.90;;;12.60;88.50;;;;;;2072603;28;20547;-82
2021/06/22 02:38:42;;;;;;;5.65;2.78;;;12.60;88.50;;;;;;2081670;28;20028;-83
2021/06/22 02:39:44;;;;;;;6.00;2.63;;;12.60;88.50;;;;;;2090145;28;20029;-82
2021/06/22 02:40:45;;;;;;;4.47;2.42;;;12.60;88.50;;;;;;2090028;28;20163;-82
2021/06/22 02:41:46;;;;;;;4.88;2.95;;;12.60;88.50;;;;;;2080167;28;20029;-82
2021/06/22 02:42:47;;;;;;;4.03;2.58;;;12.50;88.50;;;;;;2081882;28;20486;-82
2021/06/22 02:43:48;;;;;;;5.57;2.60;;;12.50;88.50;;;;;;2081822;28;20124;-82
2021/06/22 02:44:48;;;;;;;7.18;2.78;;;12.60;88.60;;;;;;2089222;28;20092;-82
2021/06/22 02:45:49;;;;;;;5.65;2.70;;;12.60;88.60;;;;;;2090043;28;20033;-82
2021/06/22 02:46:50;;;;;;;4.80;2.75;;;12.60;88.60;;;;;;2074097;28;20531;-82
2021/06/22 02:47:50;;;;;;;4.32;2.50;;;12.60;88.60;;;;;;2081544;28;20562;-82
2021/06/22 02:48:51;;;;;;;4.18;2.55;;;12.60;88.60;;;;;;2081742;28;20025;-82
2021/06/22 02:49:52;;;;;;;4.60;2.55;;;12.50;88.60;;;;;;2081672;28;20024;-82
2021/06/22 02:50:52;;;;;;;5.13;2.60;;;12.50;88.60;;;;;;2065617;28;20023;-82
2021/06/22 02:51:53;;;;;;;4.70;2.58;;;12.60;88.60;;;;;;2071853;28;20124;-82
2021/06/22 02:52:54;;;;;;;4.70;2.53;;;12.60;88.60;;;;;;2089570;28;20025;-82
2021/06/22 02:53:54;;;;;;;4.93;2.65;;;12.50;88.60;;;;;;2090020;28;20123;-82
2021/06/22 02:54:55;;;;;;;4.65;2.60;;;12.50;88.60;;;;;;2089288;28;20491;-82
2021/06/22 02:55:56;;;;;;;3.75;2.50;;;12.50;88.70;;;;;;2089858;28;20453;-82
2021/06/22 02:56:56;;;;;;;4.45;2.50;;;12.50;88.70;;;;;;2073176;28;20033;-82
2021/06/22 02:57:58;;;;;;;4.10;2.45;;;12.50;88.70;;;;;;2065388;28;20465;-81
2021/06/22 02:58:58;;;;;;;4.10;2.42;;;12.50;88.70;;;;;;2081115;28;20171;-82
2021/06/22 02:59:59;;;;;;;5.32;2.92;;;12.50;88.70;;;;;;2090417;28;20021;-83
2021/06/22 03:01:00;;;;;;;7.25;3.20;;;12.50;88.70;;;;;;2089422;28;20036;-82
2021/06/22 03:02:01;;;;;;;4.40;2.65;;;12.50;88.80;;;;;;2089276;28;20029;-82
2021/06/22 03:03:02;;;;;;;4.47;2.70;;;12.50;88.80;;;;;;2088827;28;20040;-82
2021/06/22 03:04:03;;;;;;;5.05;2.95;;;12.40;88.70;;;;;;2081503;28;20025;-83
2021/06/22 03:05:04;;;;;;;5.50;2.92;;;12.40;88.70;;;;;;2073100;28;20030;-82
2021/06/22 03:06:05;;;;;;;4.53;2.58;;;12.40;88.70;;;;;;2082206;28;20105;-81
2021/06/22 03:07:05;;;;;;;4.65;2.90;;;12.40;88.70;;;;;;2089722;28;20040;-82
2021/06/22 03:08:06;;;;;;;6.97;2.60;;;12.40;88.70;;;;;;2081589;28;20060;-82
2021/06/22 03:09:06;;;;;;;4.88;2.88;;;12.40;88.80;;;;;;2073940;28;20041;-82
2021/06/22 03:10:10;;;;;;;5.43;2.80;;;12.40;88.80;;;;;;2081504;28;20025;-82
2021/06/22 03:11:11;;;;;;;5.03;2.85;;;12.50;88.80;;;;;;2083530;28;20028;-82
2021/06/22 03:12:12;;;;;;;5.65;2.85;;;12.40;88.80;;;;;;2081570;28;20025;-82
2021/06/22 03:13:13;;;;;;;5.47;2.85;;;12.40;88.80;;;;;;2080938;28;20587;-82
2021/06/22 03:14:13;;;;;;;4.88;2.50;;;12.40;89.40;;;;;;2073474;28;20037;-82
2021/06/22 03:15:16;;;;;;;5.40;2.70;;;12.40;88.80;;;;;;2072963;28;20037;-82
2021/06/22 03:16:17;;;;;;;5.55;2.85;;;12.40;88.80;;;;;;2074361;28;20026;-82
2021/06/22 03:17:17;;;;;;;4.80;2.80;;;12.40;88.80;;;;;;2073157;28;20069;-81
2021/06/22 03:18:18;;;;;;;5.65;2.90;;;12.40;88.80;;;;;;2080807;28;20124;-82
2021/06/22 03:19:19;;;;;;;6.00;2.83;;;12.40;88.80;;;;;;2089735;28;20135;-82
2021/06/22 03:20:21;;;;;;;5.03;2.90;;;12.40;88.80;;;;;;2089620;28;20034;-82
2021/06/22 03:21:21;;;;;;;5.65;3.08;;;12.40;88.80;;;;;;2084993;28;20092;-82
2021/06/22 03:22:22;;;;;;;6.38;3.20;;;12.40;88.80;;;;;;2088881;28;20029;-82
2021/06/22 03:23:23;;;;;;;5.72;2.65;;;12.40;88.80;;;;;;2082814;28;20076;-82
2021/06/22 03:24:23;;;;;;;5.10;2.75;;;12.40;88.80;;;;;;2089517;28;20115;-82
2021/06/22 03:25:24;;;;;;;4.05;2.70;;;12.40;88.80;;;;;;2081582;28;20412;-82
2021/06/22 03:26:25;;;;;;;4.57;2.70;;;12.40;88.80;;;;;;2080375;28;20451;-82
2021/06/22 03:27:25;;;;;;;4.65;2.80;;;12.40;88.80;;;;;;2089652;28;20048;-82
2021/06/22 03:28:26;;;;;;;4.50;2.78;;;12.40;88.80;;;;;;2085534;28;20017;-82
2021/06/22 03:29:27;;;;;;;4.10;2.63;;;12.40;88.80;;;;;;2090602;28;20056;-82
2021/06/22 03:30:27;;;;;;;5.40;3.10;;;12.30;88.80;;;;;;2081138;28;20528;-82
2021/06/22 03:31:28;;;;;;;4.15;2.70;;;12.40;88.90;;;;;;2080004;28;20045;-82
2021/06/22 03:32:29;;;;;;;4.10;2.42;;;12.40;88.90;;;;;;2083123;28;20059;-82
2021/06/22 03:33:30;;;;;;;4.80;3.00;;;12.40;88.90;;;;;;2083861;28;20487;-82
2021/06/22 03:34:30;;;;;;;4.43;2.80;;;12.40;88.90;;;;;;2090351;28;20380;-82
2021/06/22 03:35:31;;;;;;;6.85;3.15;;;12.40;88.90;;;;;;2090513;28;20037;-82
2021/06/22 03:36:32;;;;;;;5.50;2.67;;;12.40;88.90;;;;;;2089511;28;20091;-83
2021/06/22 03:37:33;;;;;;;6.00;3.22;;;12.40;88.80;;;;;;2081456;28;20128;-82
2021/06/22 03:38:33;;;;;;;5.50;3.00;;;12.40;88.90;;;;;;2065298;28;20037;-83
2021/06/22 03:39:35;;;;;;;7.15;3.05;;;12.40;88.90;;;;;;2072983;28;20025;-82
2021/06/22 03:40:36;;;;;;;4.32;2.70;;;12.40;88.90;;;;;;2089213;28;20021;-82
2021/06/22 03:41:37;;;;;;;4.53;2.70;;;12.30;88.80;;;;;;2088787;28;20033;-83
2021/06/22 03:42:38;;;;;;;5.55;2.95;;;12.30;88.90;;;;;;2088440;28;20029;-82
2021/06/22 03:43:39;;;;;;;4.50;2.80;;;12.30;89.00;;;;;;2081499;28;20028;-82
2021/06/22 03:44:39;;;;;;;5.05;3.10;;;12.30;89.00;;;;;;2081146;28;20048;-82
2021/06/22 03:45:40;;;;;;;7.68;2.95;;;12.30;89.00;;;;;;2089715;28;20029;-81
2021/06/22 03:46:42;;;;;;;7.22;3.00;;;12.30;89.00;;;;;;2072736;28;20565;-82
2021/06/22 03:47:44;;;;;;;4.88;2.67;;;12.30;89.10;;;;;;2065120;28;20055;-82
2021/06/22 03:48:46;;;;;;;5.50;2.80;;;12.30;89.10;;;;;;2081602;28;20033;-83
2021/06/22 03:49:46;;;;;;;6.35;3.15;;;12.20;89.00;;;;;;2081576;28;20026;-82
2021/06/22 03:50:47;;;;;;;5.95;3.05;;;12.30;89.00;;;;;;2072496;28;20102;-82
2021/06/22 03:51:49;;;;;;;5.32;3.00;;;12.30;89.00;;;;;;2072358;28;20040;-82
2021/06/22 03:52:50;;;;;;;5.13;3.08;;;12.30;89.10;;;;;;2081400;28;20419;-82
2021/06/22 03:53:51;;;;;;;4.13;2.80;;;12.20;89.00;;;;;;2081353;28;20041;-82
2021/06/22 03:54:51;;;;;;;5.70;2.85;;;12.30;89.10;;;;;;2081288;28;20029;-82
2021/06/22 03:55:53;;;;;;;4.78;2.95;;;12.30;89.10;;;;;;2074175;28;20022;-82
2021/06/22 03:56:53;;;;;;;5.22;2.70;;;12.30;89.10;;;;;;2073088;28;20085;-82
2021/06/22 03:57:56;;;;;;;6.57;3.05;;;12.20;89.10;;;;;;2088058;28;20557;-82
2021/06/22 03:58:57;;;;;;;6.05;3.03;;;12.20;89.10;;;;;;2082948;28;20032;-82
2021/06/22 03:59:58;;;;;;;5.22;3.08;;;12.30;89.20;;;;;;2074910;28;20068;-82
2021/06/22 04:00:59;;;;;;;5.05;2.90;;;12.30;89.10;;;;;;2077784;28;20048;-82
2021/06/22 04:02:00;;;;;;;7.53;3.58;;;12.30;89.70;;;;;;2081085;28;20384;-82
2021/06/22 04:03:01;;;;;;;6.72;2.97;;;12.30;89.00;;;;;;2080938;28;20044;-82
2021/06/22 04:04:01;;;;;;;5.78;3.45;;;12.30;89.00;;;;;;2083529;28;20049;-81
2021/06/22 04:05:02;;;;;;;4.22;2.72;;;12.30;89.00;;;;;;2097873;28;20403;-82
2021/06/22 04:06:03;;;;;;;5.78;3.20;;;12.30;89.10;;;;;;2080906;28;20036;-82
2021/06/22 04:07:04;;;;;;;4.60;2.85;;;12.30;89.00;;;;;;2072363;28;20530;-82
2021/06/22 04:08:05;;;;;;;4.97;2.72;;;12.20;89.00;;;;;;2080945;28;20056;-82
2021/06/22 04:09:06;;;;;;;7.20;3.40;;;12.30;89.00;;;;;;2080266;28;20026;-82
2021/06/22 04:10:08;;;;;;;5.57;2.92;;;12.20;89.00;;;;;;2072429;28;20030;-82
2021/06/22 04:11:09;;;;;;;4.35;2.80;;;12.20;89.10;;;;;;2089541;28;20032;-82
2021/06/22 04:12:10;;;;;;;4.55;2.67;;;12.30;89.20;;;;;;2080909;28;20041;-82
2021/06/22 04:13:10;;;;;;;5.70;2.78;;;12.30;89.20;;;;;;2064594;28;20122;-82
2021/06/22 04:14:11;;;;;;;6.60;2.80;;;12.20;89.10;;;;;;2064907;28;20061;-83
2021/06/22 04:15:12;;;;;;;5.30;2.83;;;12.30;89.20;;;;;;2088715;28;20033;-82
2021/06/22 04:16:13;;;;;;;5.35;2.97;;;12.30;89.20;;;;;;2079877;28;20049;-83
2021/06/22 04:17:14;;;;;;;5.95;2.85;;;12.30;89.10;;;;;;2067064;28;20077;-83
2021/06/22 04:18:14;;;;;;;4.57;2.72;;;12.30;89.10;;;;;;2072245;28;20033;-82
2021/06/22 04:19:15;;;;;;;6.63;2.92;;;12.30;89.00;;;;;;2080318;28;20034;-83
2021/06/22 04:20:17;;;;;;;4.82;2.78;;;12.30;89.00;;;;;;2089113;28;20047;-82
2021/06/22 04:21:18;;;;;;;6.35;2.90;;;12.30;89.00;;;;;;2089022;28;20037;-82
2021/06/22 04:22:18;;;;;;;6.22;2.80;;;12.30;89.00;;;;;;2072430;28;20038;-82
2021/06/22 04:23:19;;;;;;;5.50;3.00;;;12.30;88.90;;;;;;2079816;28;20029;-82
2021/06/22 04:24:20;;;;;;;6.65;2.90;;;12.30;88.90;;;;;;2089842;28;20075;-83
2021/06/22 04:25:21;;;;;;;6.20;3.08;;;12.30;88.90;;;;;;2089118;28;20029;-82
2021/06/22 04:26:21;;;;;;;4.88;3.03;;;12.30;88.80;;;;;;2080171;28;20037;-82
2021/06/22 04:27:23;;;;;;;4.18;2.72;;;12.30;88.80;;;;;;2074013;28;20121;-83
2021/06/22 04:28:23;;;;;;;5.00;2.78;;;12.30;88.70;;;;;;2087262;28;20518;-82
2021/06/22 04:29:24;;;;;;;7.00;2.90;;;12.30;88.70;;;;;;2072874;28;20068;-83
2021/06/22 04:30:25;;;;;;;5.30;3.03;;;12.40;88.70;;;;;;2080960;28;20030;-83
2021/06/22 04:31:25;;;;;;;5.70;3.10;;;12.40;88.70;;;;;;2089269;28;20087;-83
2021/06/22 04:32:26;;;;;;;7.40;3.38;;;12.40;88.70;;;;;;2081166;28;20445;-82
2021/06/22 04:33:26;;;;;;;5.53;2.80;;;12.40;88.60;;;;;;2086387;28;20527;-82
2021/06/22 04:34:27;;;;;;;5.88;2.70;;;12.40;88.60;;;;;;2080140;28;20037;-82
2021/06/22 04:35:29;;;;;;;6.88;3.58;;;12.40;88.60;;;;;;2084709;28;20055;-82
2021/06/22 04:36:30;;;;;;;5.55;3.35;;;12.40;89.10;;;;;;2091765;28;20124;-83
2021/06/22 04:37:31;;;;;;;4.45;2.85;;;12.40;88.50;;;;;;2095041;28;20037;-83
2021/06/22 04:38:32;;;;;;;5.63;3.50;;;12.40;88.40;;;;;;2094759;28;20017;-83
2021/06/22 04:39:32;;;;;;;5.75;3.33;;;12.40;88.30;;;;;;2097552;28;20013;-83
2021/06/22 04:40:35;;;;;;;5.80;3.30;;;12.50;88.40;;;;;;2095232;28;20005;-83
2021/06/22 04:41:35;;;;;;;5.00;2.80;;;12.50;88.30;;;;;;2093151;28;20021;-82
2021/06/22 04:42:37;;;;;;;8.00;3.10;;;12.50;88.30;;;;;;2079413;28;20030;-83
2021/06/22 04:43:38;;;;;;;6.40;3.30;;;12.50;88.30;;;;;;2074014;28;20057;-83
2021/06/22 04:44:38;;;;;;;5.60;3.22;;;12.50;88.30;;;;;;2092801;28;20125;-83
2021/06/22 04:45:39;;;;;;;5.38;3.30;;;12.50;88.20;;;;;;2074987;28;20451;-83
2021/06/22 04:46:39;;;;;;;5.55;3.13;;;12.50;88.10;;;;;;2069684;28;20508;-83
2021/06/22 04:47:40;;;;;;;5.60;3.20;;;12.50;88.10;;;;;;2081311;28;20056;-83
2021/06/22 04:48:41;;;;;;;5.15;3.17;;;12.60;88.10;;;;;;2093118;28;20020;-83
2021/06/22 04:49:41;;;;;;;5.15;3.20;;;12.60;88.10;;;;;;2086091;28;20037;-83
2021/06/22 04:50:42;;;;;;;6.07;3.63;;;12.60;88.10;;;;;;2070361;28;20083;-83
2021/06/22 04:51:43;;;;;;;6.30;3.30;;;12.60;88.70;;;;;;2076368;28;20101;-82
2021/06/22 04:52:43;;;;;;;6.05;3.22;;;12.60;88.00;;;;;;2086567;28;20097;-82
2021/06/22 04:53:44;;;;;;;7.40;3.53;;;12.60;88.00;;;;;;2083225;28;20032;-83
2021/06/22 04:54:44;;;;;;;6.47;3.50;;;12.60;88.00;;;;;;2081710;28;20432;-83
2021/06/22 04:55:45;;;;;;;5.88;3.70;;;12.70;87.90;;;;;;2089750;28;20029;-83
2021/06/22 04:56:46;;;;;;;7.30;3.78;;;12.70;87.80;;;;;;2072082;28;20080;-83
2021/06/22 04:57:47;;;;;;;6.50;3.63;;;12.80;87.80;;;;;;2072770;28;20123;-83
2021/06/22 04:58:48;;;;;;;7.93;4.05;;;12.80;87.60;;;;;;2080681;28;20045;-83
2021/06/22 04:59:49;;;;;;;7.70;3.90;;;12.90;87.60;;;;;;2085144;28;20029;-83
2021/06/22 05:00:49;;;;;;;5.93;3.72;;;12.90;87.40;;;;;;2090949;28;20025;-83
2021/06/22 05:01:50;;;;;;;7.97;4.18;;;12.90;87.30;;;;;;2090294;28;20479;-82
2021/06/22 05:02:51;;;;;;;6.70;3.72;;;13.00;87.20;;;;;;2089655;28;20025;-83
2021/06/22 05:03:52;;;;;;;7.07;3.63;;;13.00;87.10;;;;;;2082073;28;20021;-83
2021/06/22 05:04:53;;;;;;;6.72;4.00;;;13.10;87.00;;;;;;2081059;28;20030;-82
2021/06/22 05:05:53;;;;;;;5.22;3.38;;;13.10;86.90;;;;;;2082567;28;20038;-82
2021/06/22 05:06:54;;;;;;;5.75;3.67;;;13.20;86.80;;;;;;2081095;28;20053;-83
2021/06/22 05:07:55;;;;;;;6.53;3.65;;;13.20;86.70;;;;;;2082937;28;20026;-83
2021/06/22 05:08:55;;;;;;;6.68;3.75;;;13.20;86.70;;;;;;2090463;28;20040;-83
2021/06/22 05:09:57;;;;;;;5.82;3.63;;;13.20;86.60;;;;;;2082854;28;20527;-83
2021/06/22 05:10:58;;;;;;;7.53;4.63;;;13.30;86.50;;;;;;2084154;28;20109;-84
2021/06/22 05:11:58;;;;;;;6.82;3.95;;;13.40;86.40;;;;;;2080750;28;20479;-83
2021/06/22 05:12:59;;;;;;;5.47;4.13;;;13.40;86.20;;;;;;2064337;28;20093;-83
2021/06/22 05:13:59;;;;;;;7.22;4.40;;;13.50;86.10;;;;;;2067663;28;20527;-84
2021/06/22 05:15:00;;;;;;;6.20;4.03;;;13.50;85.90;;;;;;2080429;28;20117;-82
2021/06/22 05:16:01;;;;;;;6.55;4.13;;;13.60;85.80;;;;;;2080857;28;20017;-83
2021/06/22 05:17:02;;;;;;;10.23;4.60;;;13.70;85.60;;;;;;2063016;28;20121;-83
2021/06/22 05:18:03;;;;;;;8.30;4.40;;;13.80;85.40;;;;;;2085895;28;20487;-83
2021/06/22 05:19:03;;;;;;;7.50;4.47;;;13.90;85.20;;;;;;2088386;28;20430;-83
2021/06/22 05:20:06;;;;;;;8.20;4.72;;;13.90;84.90;;;;;;2078707;28;20022;-83